Richland Hills, Texas
Current Conditions -  °F | °C
As of 3:08 PM on Saturday 22 Nov 2014 (Local Time) from KFTW Reporting Station
Light Rain Light Rain  
Wind Chill: 61°   Ceiling: 8000
Heat Index: 61°   Visibility: 2mi
Dew Point: 59°   Wind: 22mph
Humidity: 93%   Direction: 110°ESE
Pressure: 29.78"   Gusts: NA
Location:  32.8656°N, 97.2164°W
Report Text: KFTW 222108Z 11019KT 2SM -RA BR SCT006 BKN080 OVC100 16/15 A2978 RMK AO2 LTG DSNT S AND SW PRESFR P0000 T01610150
Loading
Personal Weather Stations






























Interactive Weather Map New forecast layout! Learn more

10-Day Weather Forecast

Advertisements
Track Severe Weather on mobile